sensor_id;sensor_type;location;lat;lon;timestamp;pressure;altitude;pressure_sealevel;temperature;humidity
86547;BME280;77188;50.862;5.478;2024-03-25T00:00:44;100099.16;;;4.13;83.42
86547;BME280;77188;50.862;5.478;2024-03-25T00:01:48;100103.73;;;4.13;83.38
86547;BME280;77188;50.862;5.478;2024-03-25T00:02:53;100103.31;;;4.12;83.33
86547;BME280;77188;50.862;5.478;2024-03-25T00:03:57;100102.92;;;4.10;83.34
86547;BME280;77188;50.862;5.478;2024-03-25T00:05:01;100108.67;;;4.10;83.24
86547;BME280;77188;50.862;5.478;2024-03-25T00:06:06;100107.95;;;4.09;83.38
86547;BME280;77188;50.862;5.478;2024-03-25T00:07:10;100113.23;;;4.08;83.67
86547;BME280;77188;50.862;5.478;2024-03-25T00:08:14;100113.05;;;4.07;83.64
86547;BME280;77188;50.862;5.478;2024-03-25T00:09:18;100115.36;;;4.07;83.82
86547;BME280;77188;50.862;5.478;2024-03-25T00:10:23;100109.80;;;4.06;83.62
86547;BME280;77188;50.862;5.478;2024-03-25T00:11:27;100109.86;;;4.05;83.55
86547;BME280;77188;50.862;5.478;2024-03-25T00:12:31;100107.36;;;4.04;83.83
86547;BME280;77188;50.862;5.478;2024-03-25T00:13:36;100103.11;;;4.03;83.49
86547;BME280;77188;50.862;5.478;2024-03-25T00:14:40;100107.04;;;4.03;83.49
86547;BME280;77188;50.862;5.478;2024-03-25T00:15:44;100108.24;;;4.02;83.44
86547;BME280;77188;50.862;5.478;2024-03-25T00:16:49;100108.70;;;4.01;83.49
86547;BME280;77188;50.862;5.478;2024-03-25T00:17:53;100111.25;;;4.01;83.51
86547;BME280;77188;50.862;5.478;2024-03-25T00:18:57;100112.33;;;4.01;83.53
86547;BME280;77188;50.862;5.478;2024-03-25T00:20:01;100112.31;;;4.01;83.57
86547;BME280;77188;50.862;5.478;2024-03-25T00:21:08;100108.10;;;4.00;83.56
86547;BME280;77188;50.862;5.478;2024-03-25T00:22:12;100112.22;;;3.98;83.64
86547;BME280;77188;50.862;5.478;2024-03-25T00:23:17;100110.41;;;3.98;83.48
86547;BME280;77188;50.862;5.478;2024-03-25T00:24:21;100110.57;;;3.96;83.66
86547;BME280;77188;50.862;5.478;2024-03-25T00:25:25;100113.39;;;3.95;83.53
86547;BME280;77188;50.862;5.478;2024-03-25T00:26:29;100108.88;;;3.95;83.55
86547;BME280;77188;50.862;5.478;2024-03-25T00:27:33;100108.44;;;3.95;83.68
86547;BME280;77188;50.862;5.478;2024-03-25T00:28:37;100110.64;;;3.94;83.77
86547;BME280;77188;50.862;5.478;2024-03-25T00:29:41;100111.66;;;3.94;83.62
86547;BME280;77188;50.862;5.478;2024-03-25T00:30:45;100113.04;;;3.94;83.77
86547;BME280;77188;50.862;5.478;2024-03-25T00:31:50;100109.73;;;3.93;83.65
86547;BME280;77188;50.862;5.478;2024-03-25T00:32:54;100108.64;;;3.91;83.55
86547;BME280;77188;50.862;5.478;2024-03-25T00:33:58;100110.95;;;3.90;83.67
86547;BME280;77188;50.862;5.478;2024-03-25T00:35:02;100112.23;;;3.89;83.58
86547;BME280;77188;50.862;5.478;2024-03-25T00:36:06;100111.81;;;3.89;83.69
86547;BME280;77188;50.862;5.478;2024-03-25T00:37:11;100117.42;;;3.88;83.70
86547;BME280;77188;50.862;5.478;2024-03-25T00:38:15;100114.64;;;3.88;83.86
86547;BME280;77188;50.862;5.478;2024-03-25T00:39:19;100115.10;;;3.88;83.80
86547;BME280;77188;50.862;5.478;2024-03-25T00:40:24;100115.84;;;3.87;83.81
86547;BME280;77188;50.862;5.478;2024-03-25T00:41:29;100114.44;;;3.87;84.04
86547;BME280;77188;50.862;5.478;2024-03-25T00:42:33;100114.73;;;3.86;83.71
86547;BME280;77188;50.862;5.478;2024-03-25T00:43:37;100111.09;;;3.85;83.99
86547;BME280;77188;50.862;5.478;2024-03-25T00:44:41;100115.34;;;3.84;83.90
86547;BME280;77188;50.862;5.478;2024-03-25T00:45:45;100112.69;;;3.84;83.95
86547;BME280;77188;50.862;5.478;2024-03-25T00:46:49;100113.84;;;3.84;84.08
86547;BME280;77188;50.862;5.478;2024-03-25T00:47:54;100115.88;;;3.82;83.98
86547;BME280;77188;50.862;5.478;2024-03-25T00:48:58;100115.27;;;3.83;83.92
86547;BME280;77188;50.862;5.478;2024-03-25T00:50:02;100111.79;;;3.83;84.03
86547;BME280;77188;50.862;5.478;2024-03-25T00:51:07;100113.78;;;3.84;84.02
86547;BME280;77188;50.862;5.478;2024-03-25T00:52:11;100114.35;;;3.84;84.14
86547;BME280;77188;50.862;5.478;2024-03-25T00:53:16;100111.49;;;3.85;84.24
86547;BME280;77188;50.862;5.478;2024-03-25T00:54:21;100117.73;;;3.86;84.12
86547;BME280;77188;50.862;5.478;2024-03-25T00:55:26;100115.23;;;3.85;84.26
86547;BME280;77188;50.862;5.478;2024-03-25T00:56:30;100115.27;;;3.86;84.31
86547;BME280;77188;50.862;5.478;2024-03-25T00:57:34;100113.77;;;3.87;84.27
86547;BME280;77188;50.862;5.478;2024-03-25T00:58:38;100113.06;;;3.87;84.31
86547;BME280;77188;50.862;5.478;2024-03-25T00:59:42;100113.23;;;3.85;84.47
86547;BME280;77188;50.862;5.478;2024-03-25T01:00:47;100113.64;;;3.86;84.57
86547;BME280;77188;50.862;5.478;2024-03-25T01:01:51;100109.05;;;3.87;84.35
86547;BME280;77188;50.862;5.478;2024-03-25T01:02:55;100110.08;;;3.88;84.32
86547;BME280;77188;50.862;5.478;2024-03-25T01:03:59;100107.91;;;3.88;84.41
86547;BME280;77188;50.862;5.478;2024-03-25T01:05:04;100106.41;;;3.89;84.34
86547;BME280;77188;50.862;5.478;2024-03-25T01:06:09;100104.48;;;3.89;84.50
86547;BME280;77188;50.862;5.478;2024-03-25T01:07:13;100103.38;;;3.89;84.25
86547;BME280;77188;50.862;5.478;2024-03-25T01:08:17;100101.75;;;3.89;84.59
86547;BME280;77188;50.862;5.478;2024-03-25T01:09:22;100107.47;;;3.89;84.63
86547;BME280;77188;50.862;5.478;2024-03-25T01:10:28;100108.94;;;3.89;84.60
86547;BME280;77188;50.862;5.478;2024-03-25T01:11:33;100103.27;;;3.86;84.71
86547;BME280;77188;50.862;5.478;2024-03-25T01:12:37;100099.30;;;3.86;84.48
86547;BME280;77188;50.862;5.478;2024-03-25T01:13:41;100099.95;;;3.87;84.52
86547;BME280;77188;50.862;5.478;2024-03-25T01:14:45;100100.11;;;3.87;84.54
86547;BME280;77188;50.862;5.478;2024-03-25T01:15:50;100101.79;;;3.86;84.60
86547;BME280;77188;50.862;5.478;2024-03-25T01:16:54;100101.27;;;3.86;84.59
86547;BME280;77188;50.862;5.478;2024-03-25T01:17:59;100099.36;;;3.86;84.54
86547;BME280;77188;50.862;5.478;2024-03-25T01:19:03;100099.98;;;3.86;84.44
86547;BME280;77188;50.862;5.478;2024-03-25T01:20:09;100099.40;;;3.85;84.45
86547;BME280;77188;50.862;5.478;2024-03-25T01:21:13;100095.55;;;3.84;84.48
86547;BME280;77188;50.862;5.478;2024-03-25T01:22:17;100095.01;;;3.82;84.43
86547;BME280;77188;50.862;5.478;2024-03-25T01:23:21;100091.05;;;3.80;84.65
86547;BME280;77188;50.862;5.478;2024-03-25T01:24:25;100093.61;;;3.80;84.40
86547;BME280;77188;50.862;5.478;2024-03-25T01:25:30;100091.32;;;3.79;84.36
86547;BME280;77188;50.862;5.478;2024-03-25T01:26:34;100091.55;;;3.79;84.41
86547;BME280;77188;50.862;5.478;2024-03-25T01:27:38;100092.92;;;3.78;84.56
86547;BME280;77188;50.862;5.478;2024-03-25T01:28:42;100091.70;;;3.79;84.44
86547;BME280;77188;50.862;5.478;2024-03-25T01:29:46;100091.25;;;3.79;84.49
86547;BME280;77188;50.862;5.478;2024-03-25T01:30:51;100091.06;;;3.79;84.63
86547;BME280;77188;50.862;5.478;2024-03-25T01:31:55;100091.80;;;3.77;84.59
86547;BME280;77188;50.862;5.478;2024-03-25T01:33:00;100093.69;;;3.76;84.53
86547;BME280;77188;50.862;5.478;2024-03-25T01:34:04;100091.65;;;3.76;84.16
86547;BME280;77188;50.862;5.478;2024-03-25T01:35:09;100089.14;;;3.75;84.30
86547;BME280;77188;50.862;5.478;2024-03-25T01:36:14;100091.58;;;3.74;84.41
86547;BME280;77188;50.862;5.478;2024-03-25T01:37:21;100091.71;;;3.74;84.50
86547;BME280;77188;50.862;5.478;2024-03-25T01:38:25;100091.38;;;3.73;84.56
86547;BME280;77188;50.862;5.478;2024-03-25T01:39:29;100092.84;;;3.73;84.72
86547;BME280;77188;50.862;5.478;2024-03-25T01:40:33;100090.27;;;3.72;84.66
86547;BME280;77188;50.862;5.478;2024-03-25T01:41:38;100094.21;;;3.72;84.82
86547;BME280;77188;50.862;5.478;2024-03-25T01:42:42;100096.23;;;3.72;84.74
86547;BME280;77188;50.862;5.478;2024-03-25T01:43:47;100096.30;;;3.71;84.82
86547;BME280;77188;50.862;5.478;2024-03-25T01:44:51;100093.73;;;3.70;84.65
86547;BME280;77188;50.862;5.478;2024-03-25T01:45:56;100096.20;;;3.70;84.70
86547;BME280;77188;50.862;5.478;2024-03-25T01:47:01;100094.23;;;3.69;84.72
86547;BME280;77188;50.862;5.478;2024-03-25T01:48:07;100094.63;;;3.68;84.68
86547;BME280;77188;50.862;5.478;2024-03-25T01:49:12;100094.23;;;3.67;84.80
86547;BME280;77188;50.862;5.478;2024-03-25T01:50:17;100094.39;;;3.67;84.73
86547;BME280;77188;50.862;5.478;2024-03-25T01:51:23;100093.42;;;3.67;84.52
86547;BME280;77188;50.862;5.478;2024-03-25T01:52:27;100090.36;;;3.66;84.57
86547;BME280;77188;50.862;5.478;2024-03-25T01:53:31;100088.52;;;3.66;84.62
86547;BME280;77188;50.862;5.478;2024-03-25T01:54:36;100087.42;;;3.66;84.72
86547;BME280;77188;50.862;5.478;2024-03-25T01:55:42;100087.17;;;3.66;84.78
86547;BME280;77188;50.862;5.478;2024-03-25T01:56:46;100088.92;;;3.65;84.68
86547;BME280;77188;50.862;5.478;2024-03-25T01:57:52;100087.98;;;3.64;84.81
86547;BME280;77188;50.862;5.478;2024-03-25T01:58:56;100091.26;;;3.63;84.60
86547;BME280;77188;50.862;5.478;2024-03-25T02:00:01;100087.86;;;3.61;84.62
86547;BME280;77188;50.862;5.478;2024-03-25T02:01:05;100088.97;;;3.60;84.79
86547;BME280;77188;50.862;5.478;2024-03-25T02:02:12;100086.09;;;3.60;84.80
86547;BME280;77188;50.862;5.478;2024-03-25T02:03:17;100085.62;;;3.60;84.97
86547;BME280;77188;50.862;5.478;2024-03-25T02:04:22;100087.86;;;3.60;84.70
86547;BME280;77188;50.862;5.478;2024-03-25T02:05:26;100087.02;;;3.60;84.56
86547;BME280;77188;50.862;5.478;2024-03-25T02:06:31;100088.44;;;3.60;84.57
86547;BME280;77188;50.862;5.478;2024-03-25T02:07:38;100086.39;;;3.60;84.76
86547;BME280;77188;50.862;5.478;2024-03-25T02:08:44;100081.31;;;3.59;84.52
86547;BME280;77188;50.862;5.478;2024-03-25T02:09:49;100080.74;;;3.58;84.47
86547;BME280;77188;50.862;5.478;2024-03-25T02:10:55;100082.88;;;3.58;84.60
86547;BME280;77188;50.862;5.478;2024-03-25T02:12:00;100075.84;;;3.56;84.51
86547;BME280;77188;50.862;5.478;2024-03-25T02:13:05;100079.48;;;3.54;84.55
86547;BME280;77188;50.862;5.478;2024-03-25T02:14:10;100076.71;;;3.53;84.48
86547;BME280;77188;50.862;5.478;2024-03-25T02:15:14;100078.24;;;3.52;84.40
86547;BME280;77188;50.862;5.478;2024-03-25T02:16:18;100082.01;;;3.51;84.46
86547;BME280;77188;50.862;5.478;2024-03-25T02:17:22;100078.02;;;3.50;84.66
86547;BME280;77188;50.862;5.478;2024-03-25T02:18:27;100081.05;;;3.51;84.89
86547;BME280;77188;50.862;5.478;2024-03-25T02:19:32;100075.92;;;3.50;84.62
86547;BME280;77188;50.862;5.478;2024-03-25T02:20:37;100075.37;;;3.50;84.64
86547;BME280;77188;50.862;5.478;2024-03-25T02:21:41;100073.17;;;3.49;84.74
86547;BME280;77188;50.862;5.478;2024-03-25T02:22:45;100071.96;;;3.48;84.73
86547;BME280;77188;50.862;5.478;2024-03-25T02:23:51;100071.80;;;3.48;84.55
86547;BME280;77188;50.862;5.478;2024-03-25T02:24:58;100072.06;;;3.47;84.55
86547;BME280;77188;50.862;5.478;2024-03-25T02:26:03;100067.70;;;3.46;84.70
86547;BME280;77188;50.862;5.478;2024-03-25T02:27:07;100064.55;;;3.46;84.51
86547;BME280;77188;50.862;5.478;2024-03-25T02:28:13;100066.02;;;3.47;84.64
86547;BME280;77188;50.862;5.478;2024-03-25T02:29:17;100062.75;;;3.47;84.61
86547;BME280;77188;50.862;5.478;2024-03-25T02:30:21;100062.57;;;3.47;84.67
86547;BME280;77188;50.862;5.478;2024-03-25T02:31:25;100062.02;;;3.47;84.37
86547;BME280;77188;50.862;5.478;2024-03-25T02:32:30;100059.83;;;3.45;84.25
86547;BME280;77188;50.862;5.478;2024-03-25T02:33:34;100058.58;;;3.43;84.32
86547;BME280;77188;50.862;5.478;2024-03-25T02:34:38;100062.30;;;3.42;84.38
86547;BME280;77188;50.862;5.478;2024-03-25T02:35:43;100055.72;;;3.41;84.62
86547;BME280;77188;50.862;5.478;2024-03-25T02:36:48;100054.18;;;3.40;84.59
86547;BME280;77188;50.862;5.478;2024-03-25T02:37:53;100054.05;;;3.41;84.69
86547;BME280;77188;50.862;5.478;2024-03-25T02:39:00;100056.95;;;3.42;84.45
86547;BME280;77188;50.862;5.478;2024-03-25T02:40:05;100052.67;;;3.43;84.62
86547;BME280;77188;50.862;5.478;2024-03-25T02:41:12;100052.55;;;3.44;84.67
86547;BME280;77188;50.862;5.478;2024-03-25T02:42:16;100052.97;;;3.44;85.01
86547;BME280;77188;50.862;5.478;2024-03-25T02:43:21;100048.96;;;3.44;84.83
86547;BME280;77188;50.862;5.478;2024-03-25T02:44:25;100049.20;;;3.45;84.72
86547;BME280;77188;50.862;5.478;2024-03-25T02:45:29;100049.75;;;3.45;84.54
86547;BME280;77188;50.862;5.478;2024-03-25T02:46:33;100051.75;;;3.45;84.63
86547;BME280;77188;50.862;5.478;2024-03-25T02:47:38;100046.08;;;3.44;84.43
86547;BME280;77188;50.862;5.478;2024-03-25T02:48:42;100040.90;;;3.43;84.42
86547;BME280;77188;50.862;5.478;2024-03-25T02:49:46;100041.61;;;3.43;84.52
86547;BME280;77188;50.862;5.478;2024-03-25T02:50:50;100038.58;;;3.43;84.44
86547;BME280;77188;50.862;5.478;2024-03-25T02:51:55;100042.98;;;3.43;84.30
86547;BME280;77188;50.862;5.478;2024-03-25T02:52:59;100042.15;;;3.43;84.36
86547;BME280;77188;50.862;5.478;2024-03-25T02:54:03;100041.48;;;3.44;84.58
86547;BME280;77188;50.862;5.478;2024-03-25T02:55:08;100040.27;;;3.44;84.40
86547;BME280;77188;50.862;5.478;2024-03-25T02:56:12;100040.95;;;3.44;84.39
86547;BME280;77188;50.862;5.478;2024-03-25T02:57:16;100044.80;;;3.43;84.41
86547;BME280;77188;50.862;5.478;2024-03-25T02:58:20;100042.52;;;3.44;84.66
86547;BME280;77188;50.862;5.478;2024-03-25T02:59:24;100038.33;;;3.44;84.28
86547;BME280;77188;50.862;5.478;2024-03-25T03:00:28;100037.50;;;3.45;84.59
86547;BME280;77188;50.862;5.478;2024-03-25T03:01:32;100034.98;;;3.44;84.08
86547;BME280;77188;50.862;5.478;2024-03-25T03:02:37;100031.85;;;3.43;84.24
86547;BME280;77188;50.862;5.478;2024-03-25T03:03:41;100035.11;;;3.43;84.36
86547;BME280;77188;50.862;5.478;2024-03-25T03:04:45;100033.67;;;3.44;84.38
86547;BME280;77188;50.862;5.478;2024-03-25T03:05:50;100034.38;;;3.44;84.36
86547;BME280;77188;50.862;5.478;2024-03-25T03:06:54;100035.45;;;3.46;84.24
86547;BME280;77188;50.862;5.478;2024-03-25T03:07:58;100031.36;;;3.46;84.29
86547;BME280;77188;50.862;5.478;2024-03-25T03:09:03;100031.88;;;3.46;84.13
86547;BME280;77188;50.862;5.478;2024-03-25T03:10:08;100029.16;;;3.46;84.34
86547;BME280;77188;50.862;5.478;2024-03-25T03:11:12;100030.34;;;3.46;84.18
86547;BME280;77188;50.862;5.478;2024-03-25T03:12:16;100028.02;;;3.46;84.41
86547;BME280;77188;50.862;5.478;2024-03-25T03:13:20;100028.50;;;3.46;84.27
86547;BME280;77188;50.862;5.478;2024-03-25T03:14:25;100029.85;;;3.45;84.19
86547;BME280;77188;50.862;5.478;2024-03-25T03:15:29;100031.09;;;3.45;84.34
86547;BME280;77188;50.862;5.478;2024-03-25T03:16:33;100029.93;;;3.45;84.24
86547;BME280;77188;50.862;5.478;2024-03-25T03:17:37;100031.63;;;3.45;84.17
86547;BME280;77188;50.862;5.478;2024-03-25T03:18:42;100032.70;;;3.45;84.01
86547;BME280;77188;50.862;5.478;2024-03-25T03:19:46;100030.89;;;3.46;83.97
86547;BME280;77188;50.862;5.478;2024-03-25T03:20:50;100034.94;;;3.47;84.05
86547;BME280;77188;50.862;5.478;2024-03-25T03:21:54;100033.89;;;3.46;84.07
86547;BME280;77188;50.862;5.478;2024-03-25T03:22:58;100033.27;;;3.45;83.84
86547;BME280;77188;50.862;5.478;2024-03-25T03:24:03;100034.86;;;3.45;84.21
86547;BME280;77188;50.862;5.478;2024-03-25T03:25:08;100034.98;;;3.44;83.95
86547;BME280;77188;50.862;5.478;2024-03-25T03:26:12;100030.96;;;3.42;84.05
86547;BME280;77188;50.862;5.478;2024-03-25T03:27:17;100034.25;;;3.41;84.23
86547;BME280;77188;50.862;5.478;2024-03-25T03:28:21;100030.30;;;3.41;84.05
86547;BME280;77188;50.862;5.478;2024-03-25T03:29:25;100032.09;;;3.41;84.12
86547;BME280;77188;50.862;5.478;2024-03-25T03:30:29;100030.55;;;3.42;84.09
86547;BME280;77188;50.862;5.478;2024-03-25T03:31:34;100028.54;;;3.42;83.98
86547;BME280;77188;50.862;5.478;2024-03-25T03:32:38;100032.84;;;3.43;84.07
86547;BME280;77188;50.862;5.478;2024-03-25T03:33:42;100029.65;;;3.42;84.06
86547;BME280;77188;50.862;5.478;2024-03-25T03:34:46;100029.64;;;3.42;84.02
86547;BME280;77188;50.862;5.478;2024-03-25T03:35:51;100027.84;;;3.42;84.26
86547;BME280;77188;50.862;5.478;2024-03-25T03:36:58;100026.52;;;3.41;83.95
86547;BME280;77188;50.862;5.478;2024-03-25T03:38:02;100028.61;;;3.42;83.79
86547;BME280;77188;50.862;5.478;2024-03-25T03:39:06;100027.33;;;3.41;84.17
86547;BME280;77188;50.862;5.478;2024-03-25T03:40:13;100027.27;;;3.39;83.86
86547;BME280;77188;50.862;5.478;2024-03-25T03:41:19;100025.02;;;3.39;84.12
86547;BME280;77188;50.862;5.478;2024-03-25T03:42:24;100023.31;;;3.39;84.16
86547;BME280;77188;50.862;5.478;2024-03-25T03:43:28;100023.19;;;3.40;84.27
86547;BME280;77188;50.862;5.478;2024-03-25T03:44:32;100023.15;;;3.41;84.10
86547;BME280;77188;50.862;5.478;2024-03-25T03:45:36;100017.89;;;3.41;84.19
86547;BME280;77188;50.862;5.478;2024-03-25T03:46:41;100016.36;;;3.41;84.02
86547;BME280;77188;50.862;5.478;2024-03-25T03:47:45;100016.74;;;3.40;84.20
86547;BME280;77188;50.862;5.478;2024-03-25T03:48:49;100017.17;;;3.38;83.96
86547;BME280;77188;50.862;5.478;2024-03-25T03:49:53;100015.73;;;3.38;83.95
86547;BME280;77188;50.862;5.478;2024-03-25T03:50:58;100017.36;;;3.36;83.99
86547;BME280;77188;50.862;5.478;2024-03-25T03:52:02;100015.38;;;3.32;83.72
86547;BME280;77188;50.862;5.478;2024-03-25T03:53:06;100018.17;;;3.30;83.78
86547;BME280;77188;50.862;5.478;2024-03-25T03:54:10;100018.73;;;3.28;84.04
86547;BME280;77188;50.862;5.478;2024-03-25T03:55:14;100017.84;;;3.27;84.30
86547;BME280;77188;50.862;5.478;2024-03-25T03:56:18;100023.85;;;3.27;84.45
86547;BME280;77188;50.862;5.478;2024-03-25T03:57:23;100022.39;;;3.27;84.51
86547;BME280;77188;50.862;5.478;2024-03-25T03:58:28;100021.70;;;3.28;84.67
86547;BME280;77188;50.862;5.478;2024-03-25T03:59:32;100022.25;;;3.29;84.63
86547;BME280;77188;50.862;5.478;2024-03-25T04:00:37;100022.63;;;3.29;84.60
86547;BME280;77188;50.862;5.478;2024-03-25T04:01:41;100017.23;;;3.29;84.72
86547;BME280;77188;50.862;5.478;2024-03-25T04:02:45;100018.02;;;3.28;84.61
86547;BME280;77188;50.862;5.478;2024-03-25T04:03:49;100018.25;;;3.27;84.83
86547;BME280;77188;50.862;5.478;2024-03-25T04:04:54;100016.02;;;3.26;85.01
86547;BME280;77188;50.862;5.478;2024-03-25T04:05:59;100016.37;;;3.27;85.05
86547;BME280;77188;50.862;5.478;2024-03-25T04:07:03;100016.14;;;3.29;85.43
86547;BME280;77188;50.862;5.478;2024-03-25T04:08:08;100016.96;;;3.30;85.25
86547;BME280;77188;50.862;5.478;2024-03-25T04:09:12;100010.27;;;3.31;85.40
86547;BME280;77188;50.862;5.478;2024-03-25T04:10:16;100014.82;;;3.33;85.35
86547;BME280;77188;50.862;5.478;2024-03-25T04:11:20;100010.70;;;3.32;85.32
86547;BME280;77188;50.862;5.478;2024-03-25T04:12:24;100012.59;;;3.33;85.32
86547;BME280;77188;50.862;5.478;2024-03-25T04:13:29;100012.42;;;3.33;85.21
86547;BME280;77188;50.862;5.478;2024-03-25T04:14:33;100008.86;;;3.32;85.57
86547;BME280;77188;50.862;5.478;2024-03-25T04:15:38;100008.98;;;3.32;85.11
86547;BME280;77188;50.862;5.478;2024-03-25T04:16:42;100007.70;;;3.31;85.38
86547;BME280;77188;50.862;5.478;2024-03-25T04:17:46;100009.41;;;3.31;85.35
86547;BME280;77188;50.862;5.478;2024-03-25T04:18:52;100008.55;;;3.31;86.03
86547;BME280;77188;50.862;5.478;2024-03-25T04:19:58;100013.70;;;3.32;85.92
86547;BME280;77188;50.862;5.478;2024-03-25T04:21:03;100010.00;;;3.32;85.58
86547;BME280;77188;50.862;5.478;2024-03-25T04:22:07;100013.02;;;3.33;85.75
86547;BME280;77188;50.862;5.478;2024-03-25T04:23:11;100013.11;;;3.34;85.43
86547;BME280;77188;50.862;5.478;2024-03-25T04:24:15;100010.23;;;3.34;86.01
86547;BME280;77188;50.862;5.478;2024-03-25T04:25:19;100010.70;;;3.34;86.10
86547;BME280;77188;50.862;5.478;2024-03-25T04:26:24;100013.48;;;3.34;86.15
86547;BME280;77188;50.862;5.478;2024-03-25T04:27:28;100010.45;;;3.33;86.39
86547;BME280;77188;50.862;5.478;2024-03-25T04:28:32;100013.13;;;3.35;86.31
86547;BME280;77188;50.862;5.478;2024-03-25T04:29:36;100010.92;;;3.36;86.22
86547;BME280;77188;50.862;5.478;2024-03-25T04:30:40;100011.79;;;3.36;86.55
86547;BME280;77188;50.862;5.478;2024-03-25T04:31:45;100012.17;;;3.36;86.62
86547;BME280;77188;50.862;5.478;2024-03-25T04:32:49;100011.52;;;3.37;86.65
86547;BME280;77188;50.862;5.478;2024-03-25T04:33:53;100011.63;;;3.37;86.46
86547;BME280;77188;50.862;5.478;2024-03-25T04:34:57;100013.17;;;3.38;86.30
86547;BME280;77188;50.862;5.478;2024-03-25T04:36:01;100010.59;;;3.37;86.32
86547;BME280;77188;50.862;5.478;2024-03-25T04:37:06;100014.16;;;3.37;86.41
86547;BME280;77188;50.862;5.478;2024-03-25T04:38:10;100014.60;;;3.36;86.86
86547;BME280;77188;50.862;5.478;2024-03-25T04:39:15;100017.02;;;3.37;86.90
86547;BME280;77188;50.862;5.478;2024-03-25T04:40:19;100019.20;;;3.37;86.65
86547;BME280;77188;50.862;5.478;2024-03-25T04:41:23;100015.73;;;3.38;86.62
86547;BME280;77188;50.862;5.478;2024-03-25T04:42:28;100018.98;;;3.38;86.38
86547;BME280;77188;50.862;5.478;2024-03-25T04:43:32;100011.98;;;3.37;86.33
86547;BME280;77188;50.862;5.478;2024-03-25T04:44:36;100018.92;;;3.38;86.51
86547;BME280;77188;50.862;5.478;2024-03-25T04:45:40;100014.86;;;3.37;86.76
86547;BME280;77188;50.862;5.478;2024-03-25T04:46:44;100011.90;;;3.37;86.41
86547;BME280;77188;50.862;5.478;2024-03-25T04:47:48;100012.96;;;3.36;86.53
86547;BME280;77188;50.862;5.478;2024-03-25T04:48:52;100012.48;;;3.36;86.29
86547;BME280;77188;50.862;5.478;2024-03-25T04:49:57;100010.67;;;3.33;87.06
86547;BME280;77188;50.862;5.478;2024-03-25T04:51:01;100008.54;;;3.32;86.96
86547;BME280;77188;50.862;5.478;2024-03-25T04:52:05;100012.84;;;3.32;87.30
86547;BME280;77188;50.862;5.478;2024-03-25T04:53:09;100011.29;;;3.31;87.05
86547;BME280;77188;50.862;5.478;2024-03-25T04:54:13;100012.02;;;3.30;87.20
86547;BME280;77188;50.862;5.478;2024-03-25T04:55:18;100011.00;;;3.30;87.35
86547;BME280;77188;50.862;5.478;2024-03-25T04:56:22;100008.38;;;3.30;87.81
86547;BME280;77188;50.862;5.478;2024-03-25T04:57:26;100011.33;;;3.30;87.78
86547;BME280;77188;50.862;5.478;2024-03-25T04:58:30;100007.37;;;3.30;87.76
86547;BME280;77188;50.862;5.478;2024-03-25T04:59:34;100005.71;;;3.29;87.48
86547;BME280;77188;50.862;5.478;2024-03-25T05:00:38;100006.13;;;3.29;87.96
86547;BME280;77188;50.862;5.478;2024-03-25T05:01:42;100001.81;;;3.29;88.05
86547;BME280;77188;50.862;5.478;2024-03-25T05:02:46;100002.62;;;3.30;88.37
86547;BME280;77188;50.862;5.478;2024-03-25T05:03:51;99999.97;;;3.31;88.52
86547;BME280;77188;50.862;5.478;2024-03-25T05:04:55;100003.22;;;3.33;88.38
86547;BME280;77188;50.862;5.478;2024-03-25T05:05:59;99995.86;;;3.34;88.15
86547;BME280;77188;50.862;5.478;2024-03-25T05:07:03;100001.16;;;3.35;88.47
86547;BME280;77188;50.862;5.478;2024-03-25T05:08:07;99999.79;;;3.36;88.46
86547;BME280;77188;50.862;5.478;2024-03-25T05:09:11;100005.08;;;3.37;88.34
86547;BME280;77188;50.862;5.478;2024-03-25T05:10:16;100007.63;;;3.36;88.32
86547;BME280;77188;50.862;5.478;2024-03-25T05:11:20;100005.14;;;3.36;88.70
86547;BME280;77188;50.862;5.478;2024-03-25T05:12:24;100006.04;;;3.37;88.71
86547;BME280;77188;50.862;5.478;2024-03-25T05:13:30;100005.25;;;3.38;88.68
86547;BME280;77188;50.862;5.478;2024-03-25T05:14:34;100006.52;;;3.39;88.77
86547;BME280;77188;50.862;5.478;2024-03-25T05:15:38;100006.92;;;3.41;88.80
86547;BME280;77188;50.862;5.478;2024-03-25T05:16:42;100008.32;;;3.43;88.88
86547;BME280;77188;50.862;5.478;2024-03-25T05:17:46;100007.39;;;3.45;88.77
86547;BME280;77188;50.862;5.478;2024-03-25T05:18:50;100008.89;;;3.48;88.56
86547;BME280;77188;50.862;5.478;2024-03-25T05:19:55;100009.81;;;3.47;88.60
86547;BME280;77188;50.862;5.478;2024-03-25T05:20:59;100008.60;;;3.48;88.45
86547;BME280;77188;50.862;5.478;2024-03-25T05:22:03;100008.49;;;3.49;88.21
86547;BME280;77188;50.862;5.478;2024-03-25T05:23:07;100006.80;;;3.50;88.45
86547;BME280;77188;50.862;5.478;2024-03-25T05:24:11;100006.54;;;3.51;88.74
86547;BME280;77188;50.862;5.478;2024-03-25T05:25:16;100007.80;;;3.53;88.56
86547;BME280;77188;50.862;5.478;2024-03-25T05:26:20;100005.19;;;3.54;88.45
86547;BME280;77188;50.862;5.478;2024-03-25T05:27:24;100005.09;;;3.55;88.46
86547;BME280;77188;50.862;5.478;2024-03-25T05:28:28;100004.65;;;3.56;88.49
86547;BME280;77188;50.862;5.478;2024-03-25T05:29:32;100002.21;;;3.57;88.58
86547;BME280;77188;50.862;5.478;2024-03-25T05:30:36;100001.77;;;3.57;88.86
86547;BME280;77188;50.862;5.478;2024-03-25T05:31:57;100003.87;;;3.60;88.65
86547;BME280;77188;50.862;5.478;2024-03-25T05:33:02;100002.08;;;3.61;88.25
86547;BME280;77188;50.862;5.478;2024-03-25T05:34:07;100003.44;;;3.62;88.47
86547;BME280;77188;50.862;5.478;2024-03-25T05:35:12;100001.66;;;3.64;88.28
86547;BME280;77188;50.862;5.478;2024-03-25T05:36:16;99999.57;;;3.66;88.07
86547;BME280;77188;50.862;5.478;2024-03-25T05:37:21;100000.78;;;3.67;88.08
86547;BME280;77188;50.862;5.478;2024-03-25T05:38:26;100001.57;;;3.69;87.90
86547;BME280;77188;50.862;5.478;2024-03-25T05:39:30;99998.57;;;3.70;88.05
86547;BME280;77188;50.862;5.478;2024-03-25T05:40:34;100001.02;;;3.71;87.97
86547;BME280;77188;50.862;5.478;2024-03-25T05:41:38;99999.73;;;3.72;87.75